Time,TemperatureF,DewpointF,PressureIn,WindDirection,WindDirectionDegrees,WindSpeedMPH,WindSpeedGustMPH,Humidity,HourlyPrecipIn,Conditions,Clouds,dailyrainin,SoftwareType,DateUTC
2013-02-25 06:15:00,32.2,26.4,29.93,NE,54,1.0,5.0,79,0.00,,,0.01,VWS V14.01,2013-02-25 11:15:00,
2013-02-25 06:16:00,28.7,25.6,30.03,NE,53,0.0,5.0,88,0.00,,,0.00,VWS V14.01,2013-02-25 11:16:00,
2013-02-25 06:22:00,28.7,25.3,30.03,NE,53,0.0,5.0,87,0.00,,,0.00,VWS V14.01,2013-02-25 11:22:00,
2013-02-25 06:27:00,28.6,25.2,30.04,NE,53,0.0,5.0,87,0.00,,,0.00,VWS V14.01,2013-02-25 11:27:00,
2013-02-25 06:32:00,28.5,25.1,30.04,NE,53,0.0,0.0,87,0.00,,,0.00,VWS V14.01,2013-02-25 11:32:00,
2013-02-25 06:37:00,28.4,25.3,30.05,NE,53,0.0,1.0,88,0.00,,,0.00,VWS V14.01,2013-02-25 11:37:00,
2013-02-25 06:42:00,28.4,25.3,30.05,NE,53,0.0,1.0,88,0.00,,,0.00,VWS V14.01,2013-02-25 11:42:00,
2013-02-25 06:47:00,28.3,25.2,30.05,NE,53,1.0,1.0,88,0.00,,,0.00,VWS V14.01,2013-02-25 11:47:00,
2013-02-25 06:52:00,28.3,25.2,30.05,East,97,0.0,2.0,88,0.00,,,0.00,VWS V14.01,2013-02-25 11:52:00,
2013-02-25 06:57:00,28.5,25.7,30.05,WNW,283,0.0,3.0,89,0.00,,,0.00,VWS V14.01,2013-02-25 11:57:00,
2013-02-25 07:02:00,28.8,25.7,30.05,WNW,283,0.0,0.0,88,0.00,,,0.00,VWS V14.01,2013-02-25 12:02:00,
2013-02-25 07:07:00,28.9,25.8,30.06,WNW,298,0.0,3.0,88,0.00,,,0.00,VWS V14.01,2013-02-25 12:07:00,
2013-02-25 07:13:00,28.9,25.8,30.06,WNW,298,0.0,3.0,88,0.00,,,0.00,VWS V14.01,2013-02-25 12:13:00,
2013-02-25 07:18:00,28.8,25.4,30.06,WNW,298,0.0,3.0,87,0.00,,,0.00,VWS V14.01,2013-02-25 12:18:00,
2013-02-25 07:23:00,28.8,25.7,30.06,WNW,298,0.0,3.0,88,0.00,,,0.00,VWS V14.01,2013-02-25 12:23:00,
2013-02-25 07:28:00,28.8,25.7,30.07,WNW,298,0.0,3.0,88,0.00,,,0.00,VWS V14.01,2013-02-25 12:28:00,
2013-02-25 07:33:00,28.8,25.7,30.07,WNW,298,0.0,2.0,88,0.00,,,0.00,VWS V14.01,2013-02-25 12:33:00,
2013-02-25 07:38:00,29.3,26.2,30.07,WNW,298,0.0,2.0,88,0.00,,,0.00,VWS V14.01,2013-02-25 12:38:00,
2013-02-25 16:44:00,29.4,26.3,30.07,WNW,298,0.0,2.0,88,0.00,,,0.00,VWS V14.01,2013-02-25 21:44:00,
2013-02-25 16:49:00,40.1,26.9,30.15,NNE,22,0.0,3.0,59,0.00,,,0.00,VWS V14.01,2013-02-25 21:49:00,
2013-02-25 16:54:00,40.1,26.9,30.15,NNE,22,0.0,3.0,59,0.00,,,0.00,VWS V14.01,2013-02-25 21:54:00,
2013-02-25 16:59:00,40.1,27.4,30.15,NNE,22,0.0,3.0,60,0.00,,,0.00,VWS V14.01,2013-02-25 21:59:00,
2013-02-25 17:04:00,40.0,27.6,30.15,NNE,22,0.0,0.0,61,0.00,,,0.00,VWS V14.01,2013-02-25 22:04:00,
2013-02-25 17:09:00,40.0,27.2,30.15,NNE,22,0.0,2.0,60,0.00,,,0.00,VWS V14.01,2013-02-25 22:09:00,
2013-02-25 17:14:00,39.9,27.2,30.15,NNE,22,0.0,2.0,60,0.00,,,0.00,VWS V14.01,2013-02-25 22:14:00,
2013-02-25 17:19:00,39.8,27.9,30.15,NNE,22,0.0,2.0,62,0.00,,,0.00,VWS V14.01,2013-02-25 22:19:00,
2013-02-25 17:24:00,39.6,27.7,30.15,NNE,22,0.0,2.0,62,0.00,,,0.00,VWS V14.01,2013-02-25 22:24:00,
2013-02-25 17:29:00,39.5,28.4,30.15,NNE,22,0.0,2.0,64,0.00,,,0.00,VWS V14.01,2013-02-25 22:29:00,
2013-02-25 17:34:00,39.2,28.1,30.15,NNE,22,0.0,0.0,64,0.00,,,0.00,VWS V14.01,2013-02-25 22:34:00,
2013-02-25 17:39:00,38.9,27.8,30.15,NNE,22,0.0,0.0,64,0.00,,,0.00,VWS V14.01,2013-02-25 22:39:00,
2013-02-25 17:44:00,38.7,28.0,30.15,NNE,22,0.0,0.0,65,0.00,,,0.00,VWS V14.01,2013-02-25 22:44:00,
2013-02-25 18:12:00,38.6,27.9,30.15,NNE,22,0.0,0.0,65,0.00,,,0.00,VWS V14.01,2013-02-25 23:12:00,
2013-02-25 18:17:00,36.3,28.1,30.18,NNE,22,0.0,0.0,72,0.00,,,0.00,VWS V14.01,2013-02-25 23:17:00,
2013-02-25 18:22:00,35.8,28.7,30.18,NNE,22,0.0,0.0,75,0.00,,,0.00,VWS V14.01,2013-02-25 23:22:00,
2013-02-25 18:27:00,35.4,28.3,30.19,NNE,22,0.0,0.0,75,0.00,,,0.00,VWS V14.01,2013-02-25 23:27:00,
2013-02-25 18:32:00,35.2,28.7,30.19,NNE,22,0.0,0.0,77,0.00,,,0.00,VWS V14.01,2013-02-25 23:32:00,
2013-02-25 18:37:00,35.0,28.5,30.19,NNE,22,0.0,0.0,77,0.00,,,0.00,VWS V14.01,2013-02-25 23:37:00,
2013-02-25 18:42:00,35.0,28.9,30.20,NNE,22,0.0,0.0,78,0.00,,,0.00,VWS V14.01,2013-02-25 23:42:00,
2013-02-25 18:47:00,34.9,28.8,30.20,NNE,22,0.0,0.0,78,0.00,,,0.00,VWS V14.01,2013-02-25 23:47:00,
2013-02-25 18:52:00,34.7,28.5,30.20,NNE,22,0.0,0.0,78,0.00,,,0.00,VWS V14.01,2013-02-25 23:52:00,
2013-02-25 18:57:00,34.5,28.4,30.20,NNE,22,0.0,0.0,78,0.00,,,0.00,VWS V14.01,2013-02-25 23:57:00,
2013-02-25 19:02:00,34.4,28.9,30.20,NNE,22,0.0,0.0,80,0.00,,,0.00,VWS V14.01,2013-02-26 00:02:00,
2013-02-25 19:07:00,34.3,28.8,30.20,NNE,22,0.0,0.0,80,0.00,,,0.00,VWS V14.01,2013-02-26 00:07:00,
2013-02-25 19:12:00,34.3,29.1,30.20,NNE,22,0.0,0.0,81,0.00,,,0.00,VWS V14.01,2013-02-26 00:12:00,
2013-02-25 19:17:00,34.3,29.1,30.20,NNE,22,0.0,0.0,81,0.00,,,0.00,VWS V14.01,2013-02-26 00:17:00,
2013-02-25 19:22:00,34.1,28.9,30.20,NNE,22,0.0,0.0,81,0.00,,,0.00,VWS V14.01,2013-02-26 00:22:00,
2013-02-25 19:27:00,34.0,29.1,30.20,NNE,22,0.0,0.0,82,0.00,,,0.00,VWS V14.01,2013-02-26 00:27:00,
2013-02-25 19:32:00,33.8,29.2,30.20,NNE,22,0.0,0.0,83,0.00,,,0.00,VWS V14.01,2013-02-26 00:32:00,
2013-02-25 19:37:00,33.7,29.1,30.20,NNE,22,0.0,0.0,83,0.00,,,0.00,VWS V14.01,2013-02-26 00:37:00,
2013-02-25 19:42:00,33.7,29.1,30.20,NNE,22,0.0,0.0,83,0.00,,,0.00,VWS V14.01,2013-02-26 00:42:00,
2013-02-25 19:47:00,33.6,29.0,30.20,NNE,22,0.0,0.0,83,0.00,,,0.00,VWS V14.01,2013-02-26 00:47:00,
2013-02-25 19:52:00,33.4,28.8,30.20,NNE,22,0.0,0.0,83,0.00,,,0.00,VWS V14.01,2013-02-26 00:52:00,
2013-02-25 19:57:00,33.2,28.9,30.20,NNE,22,0.0,0.0,84,0.00,,,0.00,VWS V14.01,2013-02-26 00:57:00,
2013-02-25 20:02:00,33.1,28.8,30.20,NNE,22,0.0,0.0,84,0.00,,,0.00,VWS V14.01,2013-02-26 01:02:00,
2013-02-25 20:08:00,32.8,28.8,30.20,NNE,22,0.0,0.0,85,0.00,,,0.00,VWS V14.01,2013-02-26 01:08:00,
2013-02-25 20:13:00,32.6,28.6,30.21,NNE,22,0.0,0.0,85,0.00,,,0.00,VWS V14.01,2013-02-26 01:13:00,
2013-02-25 20:18:00,32.3,28.3,30.21,NNE,22,0.0,0.0,85,0.00,,,0.00,VWS V14.01,2013-02-26 01:18:00,
2013-02-25 20:23:00,32.1,28.4,30.21,NNE,22,0.0,1.0,86,0.00,,,0.00,VWS V14.01,2013-02-26 01:23:00,
2013-02-25 20:28:00,31.9,28.5,30.21,NNE,22,0.0,1.0,87,0.00,,,0.00,VWS V14.01,2013-02-26 01:28:00,
2013-02-25 20:33:00,31.5,28.1,30.21,NNE,22,0.0,0.0,87,0.00,,,0.00,VWS V14.01,2013-02-26 01:33:00,
2013-02-25 20:38:00,31.2,28.1,30.21,NNE,22,0.0,0.0,88,0.00,,,0.00,VWS V14.01,2013-02-26 01:38:00,
2013-02-25 20:43:00,31.0,27.9,30.21,NNE,22,0.0,0.0,88,0.00,,,0.00,VWS V14.01,2013-02-26 01:43:00,
2013-02-25 20:48:00,30.8,28.0,30.21,NNE,22,0.0,0.0,89,0.00,,,0.00,VWS V14.01,2013-02-26 01:48:00,
2013-02-25 20:53:00,30.6,27.5,30.21,NNE,22,0.0,0.0,88,0.00,,,0.00,VWS V14.01,2013-02-26 01:53:00,
2013-02-25 20:58:00,30.3,27.5,30.21,NNE,22,0.0,0.0,89,0.00,,,0.00,VWS V14.01,2013-02-26 01:58:00,
2013-02-25 21:03:00,30.1,27.3,30.21,NNE,22,0.0,0.0,89,0.00,,,0.00,VWS V14.01,2013-02-26 02:03:00,
2013-02-25 21:08:00,29.9,27.1,30.21,NNE,22,0.0,0.0,89,0.00,,,0.00,VWS V14.01,2013-02-26 02:08:00,
2013-02-25 21:13:00,29.7,27.1,30.21,NNE,22,0.0,1.0,90,0.00,,,0.00,VWS V14.01,2013-02-26 02:13:00,
2013-02-25 21:18:00,29.4,26.8,30.21,NNE,22,0.0,1.0,90,0.00,,,0.00,VWS V14.01,2013-02-26 02:18:00,
2013-02-25 21:23:00,29.2,26.9,30.21,NNE,22,0.0,1.0,91,0.00,,,0.00,VWS V14.01,2013-02-26 02:23:00,
2013-02-25 21:28:00,29.1,26.8,30.21,NNE,22,0.0,1.0,91,0.00,,,0.00,VWS V14.01,2013-02-26 02:28:00,
2013-02-25 21:33:00,29.0,26.7,30.22,NNE,22,0.0,0.0,91,0.00,,,0.00,VWS V14.01,2013-02-26 02:33:00,
2013-02-25 21:38:00,28.8,26.5,30.22,NNE,22,0.0,1.0,91,0.00,,,0.00,VWS V14.01,2013-02-26 02:38:00,
2013-02-25 21:43:00,28.7,26.4,30.22,NNE,22,0.0,1.0,91,0.00,,,0.00,VWS V14.01,2013-02-26 02:43:00,
2013-02-25 21:49:00,28.6,26.6,30.22,NNE,22,0.0,1.0,92,0.00,,,0.00,VWS V14.01,2013-02-26 02:49:00,
2013-02-25 21:54:00,28.6,26.6,30.22,NNE,19,0.0,1.0,92,0.00,,,0.00,VWS V14.01,2013-02-26 02:54:00,
2013-02-25 21:59:00,28.6,26.6,30.23,NNE,19,0.0,1.0,92,0.00,,,0.00,VWS V14.01,2013-02-26 02:59:00,
2013-02-25 22:04:00,28.5,26.5,30.23,NNE,19,0.0,0.0,92,0.00,,,0.00,VWS V14.01,2013-02-26 03:04:00,
2013-02-25 22:09:00,28.5,26.5,30.23,NNE,19,0.0,0.0,92,0.00,,,0.00,VWS V14.01,2013-02-26 03:09:00,
2013-02-25 22:14:00,28.6,26.8,30.23,NNE,19,0.0,0.0,93,0.00,,,0.00,VWS V14.01,2013-02-26 03:14:00,
2013-02-25 22:19:00,28.6,26.8,30.23,NNE,19,0.0,0.0,93,0.00,,,0.00,VWS V14.01,2013-02-26 03:19:00,
2013-02-25 22:24:00,28.7,26.9,30.24,NNE,19,0.0,0.0,93,0.00,,,0.00,VWS V14.01,2013-02-26 03:24:00,
2013-02-25 22:29:00,28.8,27.0,30.23,NNE,19,0.0,0.0,93,0.00,,,0.00,VWS V14.01,2013-02-26 03:29:00,
2013-02-25 22:34:00,29.0,27.2,30.24,NNE,19,0.0,0.0,93,0.00,,,0.00,VWS V14.01,2013-02-26 03:34:00,
2013-02-25 22:39:00,29.1,27.3,30.23,NNE,19,0.0,0.0,93,0.00,,,0.00,VWS V14.01,2013-02-26 03:39:00,
2013-02-25 22:44:00,29.2,27.4,30.23,NNE,19,0.0,0.0,93,0.00,,,0.00,VWS V14.01,2013-02-26 03:44:00,
2013-02-25 22:49:00,29.3,27.5,30.23,NNE,19,0.0,0.0,93,0.00,,,0.00,VWS V14.01,2013-02-26 03:49:00,
2013-02-25 22:54:00,29.4,27.4,30.23,NNE,19,0.0,0.0,92,0.00,,,0.00,VWS V14.01,2013-02-26 03:54:00,
2013-02-25 22:59:00,29.5,27.7,30.23,NNE,19,0.0,0.0,93,0.00,,,0.00,VWS V14.01,2013-02-26 03:59:00,
2013-02-25 23:04:00,29.6,27.6,30.23,NNE,19,0.0,0.0,92,0.00,,,0.00,VWS V14.01,2013-02-26 04:04:00,
2013-02-25 23:09:00,29.7,27.7,30.23,NNE,19,0.0,0.0,92,0.00,,,0.00,VWS V14.01,2013-02-26 04:09:00,
2013-02-25 23:14:00,29.8,27.8,30.23,NNE,19,1.0,1.0,92,0.00,,,0.00,VWS V14.01,2013-02-26 04:14:00,
2013-02-25 23:19:00,30.0,28.0,30.24,NNE,19,0.0,1.0,92,0.00,,,0.00,VWS V14.01,2013-02-26 04:19:00,
2013-02-25 23:24:00,30.1,27.8,30.23,NNE,19,0.0,1.0,91,0.00,,,0.00,VWS V14.01,2013-02-26 04:24:00,
2013-02-25 23:29:00,30.2,27.9,30.23,NNE,19,0.0,1.0,91,0.00,,,0.00,VWS V14.01,2013-02-26 04:29:00,
2013-02-25 23:34:00,30.2,27.9,30.23,NNE,19,0.0,0.0,91,0.00,,,0.00,VWS V14.01,2013-02-26 04:34:00,
2013-02-25 23:40:00,30.3,28.0,30.23,NNE,19,0.0,0.0,91,0.00,,,0.00,VWS V14.01,2013-02-26 04:40:00,
2013-02-25 23:45:00,30.3,28.0,30.23,NNE,19,0.0,0.0,91,0.00,,,0.00,VWS V14.01,2013-02-26 04:45:00,
2013-02-25 23:50:00,30.4,28.1,30.23,NNE,19,0.0,0.0,91,0.00,,,0.00,VWS V14.01,2013-02-26 04:50:00,
2013-02-25 23:55:00,30.4,28.1,30.23,NNE,19,0.0,0.0,91,0.00,,,0.00,VWS V14.01,2013-02-26 04:55:00,